sensor_id;sensor_type;location;lat;lon;timestamp;P1;durP1;ratioP1;P2;durP2;ratioP2
56335;SDS011;42241;53.510;10.170;2023-04-15T00:01:03;1.83;;;0.60;;
56335;SDS011;42241;53.510;10.170;2023-04-15T00:03:29;2.23;;;0.60;;
56335;SDS011;42241;53.510;10.170;2023-04-15T00:05:56;1.00;;;0.47;;
56335;SDS011;42241;53.510;10.170;2023-04-15T00:08:22;2.13;;;0.90;;
56335;SDS011;42241;53.510;10.170;2023-04-15T00:10:48;0.73;;;0.50;;
56335;SDS011;42241;53.510;10.170;2023-04-15T00:13:14;4.43;;;0.80;;
56335;SDS011;42241;53.510;10.170;2023-04-15T00:15:40;0.50;;;0.43;;
56335;SDS011;42241;53.510;10.170;2023-04-15T00:18:07;1.47;;;0.80;;
56335;SDS011;42241;53.510;10.170;2023-04-15T00:20:33;3.77;;;0.70;;
56335;SDS011;42241;53.510;10.170;2023-04-15T00:23:04;1.30;;;0.83;;
56335;SDS011;42241;53.510;10.170;2023-04-15T00:25:29;1.10;;;0.60;;
56335;SDS011;42241;53.510;10.170;2023-04-15T00:27:55;0.77;;;0.50;;
56335;SDS011;42241;53.510;10.170;2023-04-15T00:30:23;1.00;;;0.40;;
56335;SDS011;42241;53.510;10.170;2023-04-15T00:32:50;1.63;;;0.50;;
56335;SDS011;42241;53.510;10.170;2023-04-15T00:35:19;1.57;;;0.80;;
56335;SDS011;42241;53.510;10.170;2023-04-15T00:37:45;2.83;;;0.63;;
56335;SDS011;42241;53.510;10.170;2023-04-15T00:40:13;0.97;;;0.80;;
56335;SDS011;42241;53.510;10.170;2023-04-15T00:42:43;0.97;;;0.40;;
56335;SDS011;42241;53.510;10.170;2023-04-15T00:45:09;1.27;;;0.67;;
56335;SDS011;42241;53.510;10.170;2023-04-15T00:47:36;0.50;;;0.50;;
56335;SDS011;42241;53.510;10.170;2023-04-15T00:50:05;2.83;;;0.97;;
56335;SDS011;42241;53.510;10.170;2023-04-15T00:52:34;0.90;;;0.60;;
56335;SDS011;42241;53.510;10.170;2023-04-15T00:55:01;1.67;;;1.00;;
56335;SDS011;42241;53.510;10.170;2023-04-15T00:57:28;2.73;;;0.60;;
56335;SDS011;42241;53.510;10.170;2023-04-15T00:59:54;4.37;;;0.93;;
56335;SDS011;42241;53.510;10.170;2023-04-15T01:02:21;1.60;;;0.50;;
56335;SDS011;42241;53.510;10.170;2023-04-15T01:04:47;1.30;;;0.57;;
56335;SDS011;42241;53.510;10.170;2023-04-15T01:07:13;1.20;;;0.53;;
56335;SDS011;42241;53.510;10.170;2023-04-15T01:09:40;1.00;;;0.50;;
56335;SDS011;42241;53.510;10.170;2023-04-15T01:12:06;1.07;;;0.60;;
56335;SDS011;42241;53.510;10.170;2023-04-15T01:14:34;1.57;;;0.60;;
56335;SDS011;42241;53.510;10.170;2023-04-15T01:17:01;1.00;;;0.47;;
56335;SDS011;42241;53.510;10.170;2023-04-15T01:19:27;0.60;;;0.60;;
56335;SDS011;42241;53.510;10.170;2023-04-15T01:21:54;0.63;;;0.60;;
56335;SDS011;42241;53.510;10.170;2023-04-15T01:24:20;1.57;;;0.57;;
56335;SDS011;42241;53.510;10.170;2023-04-15T01:26:47;2.33;;;0.90;;
56335;SDS011;42241;53.510;10.170;2023-04-15T01:29:14;1.47;;;0.70;;
56335;SDS011;42241;53.510;10.170;2023-04-15T01:31:40;2.30;;;0.80;;
56335;SDS011;42241;53.510;10.170;2023-04-15T01:34:13;1.63;;;0.50;;
56335;SDS011;42241;53.510;10.170;2023-04-15T01:36:39;0.97;;;0.70;;
56335;SDS011;42241;53.510;10.170;2023-04-15T01:39:05;0.87;;;0.60;;
56335;SDS011;42241;53.510;10.170;2023-04-15T01:41:31;2.97;;;0.60;;
56335;SDS011;42241;53.510;10.170;2023-04-15T01:43:56;1.37;;;0.40;;
56335;SDS011;42241;53.510;10.170;2023-04-15T01:46:22;1.43;;;0.80;;
56335;SDS011;42241;53.510;10.170;2023-04-15T01:48:48;0.67;;;0.50;;
56335;SDS011;42241;53.510;10.170;2023-04-15T01:51:15;1.43;;;0.70;;
56335;SDS011;42241;53.510;10.170;2023-04-15T01:53:41;0.50;;;0.50;;
56335;SDS011;42241;53.510;10.170;2023-04-15T01:56:06;3.30;;;0.50;;
56335;SDS011;42241;53.510;10.170;2023-04-15T01:58:33;1.70;;;0.60;;
56335;SDS011;42241;53.510;10.170;2023-04-15T02:00:58;2.60;;;0.90;;
56335;SDS011;42241;53.510;10.170;2023-04-15T02:03:24;4.53;;;0.80;;
56335;SDS011;42241;53.510;10.170;2023-04-15T02:05:50;1.30;;;0.70;;
56335;SDS011;42241;53.510;10.170;2023-04-15T02:08:16;1.63;;;0.80;;
56335;SDS011;42241;53.510;10.170;2023-04-15T02:10:41;2.23;;;0.30;;
56335;SDS011;42241;53.510;10.170;2023-04-15T02:13:07;1.27;;;0.43;;
56335;SDS011;42241;53.510;10.170;2023-04-15T02:15:33;0.73;;;0.50;;
56335;SDS011;42241;53.510;10.170;2023-04-15T02:17:59;1.60;;;0.37;;
56335;SDS011;42241;53.510;10.170;2023-04-15T02:20:25;0.63;;;0.57;;
56335;SDS011;42241;53.510;10.170;2023-04-15T02:22:51;0.43;;;0.33;;
56335;SDS011;42241;53.510;10.170;2023-04-15T02:25:17;0.97;;;0.43;;
56335;SDS011;42241;53.510;10.170;2023-04-15T02:27:44;0.80;;;0.50;;
56335;SDS011;42241;53.510;10.170;2023-04-15T02:30:10;2.40;;;0.60;;
56335;SDS011;42241;53.510;10.170;2023-04-15T02:32:35;2.43;;;0.70;;
56335;SDS011;42241;53.510;10.170;2023-04-15T02:35:08;0.77;;;0.40;;
56335;SDS011;42241;53.510;10.170;2023-04-15T02:37:36;0.50;;;0.50;;
56335;SDS011;42241;53.510;10.170;2023-04-15T02:40:07;0.93;;;0.73;;
56335;SDS011;42241;53.510;10.170;2023-04-15T02:42:40;1.43;;;0.50;;
56335;SDS011;42241;53.510;10.170;2023-04-15T02:45:06;0.53;;;0.30;;
56335;SDS011;42241;53.510;10.170;2023-04-15T02:47:33;4.60;;;0.70;;
56335;SDS011;42241;53.510;10.170;2023-04-15T02:50:00;1.50;;;0.67;;
56335;SDS011;42241;53.510;10.170;2023-04-15T02:52:32;2.03;;;0.60;;
56335;SDS011;42241;53.510;10.170;2023-04-15T02:54:57;3.47;;;0.70;;
56335;SDS011;42241;53.510;10.170;2023-04-15T02:57:26;1.60;;;0.60;;
56335;SDS011;42241;53.510;10.170;2023-04-15T02:59:55;2.80;;;0.83;;
56335;SDS011;42241;53.510;10.170;2023-04-15T03:02:27;1.77;;;0.53;;
56335;SDS011;42241;53.510;10.170;2023-04-15T03:04:57;2.07;;;0.60;;
56335;SDS011;42241;53.510;10.170;2023-04-15T03:07:22;1.80;;;0.70;;
56335;SDS011;42241;53.510;10.170;2023-04-15T03:09:48;2.30;;;0.67;;
56335;SDS011;42241;53.510;10.170;2023-04-15T03:12:14;1.03;;;0.50;;
56335;SDS011;42241;53.510;10.170;2023-04-15T03:14:39;1.37;;;0.60;;
56335;SDS011;42241;53.510;10.170;2023-04-15T03:17:05;1.40;;;0.53;;
56335;SDS011;42241;53.510;10.170;2023-04-15T03:19:31;0.97;;;0.60;;
56335;SDS011;42241;53.510;10.170;2023-04-15T03:21:56;1.70;;;0.70;;
56335;SDS011;42241;53.510;10.170;2023-04-15T03:24:22;0.60;;;0.60;;
56335;SDS011;42241;53.510;10.170;2023-04-15T03:26:48;1.03;;;0.60;;
56335;SDS011;42241;53.510;10.170;2023-04-15T03:29:14;1.53;;;0.50;;
56335;SDS011;42241;53.510;10.170;2023-04-15T03:31:40;1.10;;;0.60;;
56335;SDS011;42241;53.510;10.170;2023-04-15T03:34:08;1.40;;;0.40;;
56335;SDS011;42241;53.510;10.170;2023-04-15T03:36:34;0.80;;;0.50;;
56335;SDS011;42241;53.510;10.170;2023-04-15T03:38:59;2.13;;;0.87;;
56335;SDS011;42241;53.510;10.170;2023-04-15T03:41:26;0.43;;;0.43;;
56335;SDS011;42241;53.510;10.170;2023-04-15T03:43:52;1.33;;;0.70;;
56335;SDS011;42241;53.510;10.170;2023-04-15T03:46:20;2.87;;;0.77;;
56335;SDS011;42241;53.510;10.170;2023-04-15T03:48:46;2.20;;;0.70;;
56335;SDS011;42241;53.510;10.170;2023-04-15T03:51:12;1.30;;;0.70;;
56335;SDS011;42241;53.510;10.170;2023-04-15T03:53:37;2.83;;;0.77;;
56335;SDS011;42241;53.510;10.170;2023-04-15T03:56:03;2.10;;;0.77;;
56335;SDS011;42241;53.510;10.170;2023-04-15T03:58:29;0.87;;;0.60;;
56335;SDS011;42241;53.510;10.170;2023-04-15T04:00:55;1.07;;;0.57;;
56335;SDS011;42241;53.510;10.170;2023-04-15T04:03:21;2.97;;;0.80;;
56335;SDS011;42241;53.510;10.170;2023-04-15T04:05:46;1.70;;;0.73;;
56335;SDS011;42241;53.510;10.170;2023-04-15T04:08:12;1.47;;;0.40;;
56335;SDS011;42241;53.510;10.170;2023-04-15T04:10:40;2.43;;;0.73;;
56335;SDS011;42241;53.510;10.170;2023-04-15T04:13:06;0.60;;;0.60;;
56335;SDS011;42241;53.510;10.170;2023-04-15T04:15:31;1.30;;;0.47;;
56335;SDS011;42241;53.510;10.170;2023-04-15T04:17:57;1.50;;;0.47;;
56335;SDS011;42241;53.510;10.170;2023-04-15T04:20:23;4.53;;;0.73;;
56335;SDS011;42241;53.510;10.170;2023-04-15T04:22:49;4.70;;;0.67;;
56335;SDS011;42241;53.510;10.170;2023-04-15T04:25:14;8.47;;;2.10;;
56335;SDS011;42241;53.510;10.170;2023-04-15T04:27:40;4.20;;;2.13;;
56335;SDS011;42241;53.510;10.170;2023-04-15T04:30:06;2.60;;;1.83;;
56335;SDS011;42241;53.510;10.170;2023-04-15T04:32:32;2.83;;;1.37;;
56335;SDS011;42241;53.510;10.170;2023-04-15T04:35:01;0.83;;;0.83;;
56335;SDS011;42241;53.510;10.170;2023-04-15T04:37:27;0.77;;;0.77;;
56335;SDS011;42241;53.510;10.170;2023-04-15T04:39:53;1.00;;;0.80;;
56335;SDS011;42241;53.510;10.170;2023-04-15T04:42:19;2.53;;;1.00;;
56335;SDS011;42241;53.510;10.170;2023-04-15T04:44:44;1.60;;;1.50;;
56335;SDS011;42241;53.510;10.170;2023-04-15T04:47:11;1.50;;;1.27;;
56335;SDS011;42241;53.510;10.170;2023-04-15T04:49:36;1.43;;;1.33;;
56335;SDS011;42241;53.510;10.170;2023-04-15T04:52:02;1.40;;;1.30;;
56335;SDS011;42241;53.510;10.170;2023-04-15T04:54:28;1.30;;;1.20;;
56335;SDS011;42241;53.510;10.170;2023-04-15T04:56:55;1.80;;;1.70;;
56335;SDS011;42241;53.510;10.170;2023-04-15T04:59:21;1.30;;;1.20;;
56335;SDS011;42241;53.510;10.170;2023-04-15T05:01:50;5.73;;;1.80;;
56335;SDS011;42241;53.510;10.170;2023-04-15T05:04:18;3.50;;;1.40;;
56335;SDS011;42241;53.510;10.170;2023-04-15T05:06:44;6.83;;;1.70;;
56335;SDS011;42241;53.510;10.170;2023-04-15T05:09:12;2.33;;;1.30;;
56335;SDS011;42241;53.510;10.170;2023-04-15T05:11:48;4.07;;;1.30;;
56335;SDS011;42241;53.510;10.170;2023-04-15T05:14:27;1.67;;;1.57;;
56335;SDS011;42241;53.510;10.170;2023-04-15T05:16:58;1.63;;;1.53;;
56335;SDS011;42241;53.510;10.170;2023-04-15T05:19:34;1.90;;;1.70;;
56335;SDS011;42241;53.510;10.170;2023-04-15T05:22:02;1.83;;;1.73;;
56335;SDS011;42241;53.510;10.170;2023-04-15T05:24:37;1.60;;;1.50;;
56335;SDS011;42241;53.510;10.170;2023-04-15T05:27:03;2.37;;;1.73;;
56335;SDS011;42241;53.510;10.170;2023-04-15T05:29:30;1.87;;;1.70;;
56335;SDS011;42241;53.510;10.170;2023-04-15T05:31:56;1.53;;;1.43;;
56335;SDS011;42241;53.510;10.170;2023-04-15T05:34:22;2.60;;;2.40;;
56335;SDS011;42241;53.510;10.170;2023-04-15T05:36:48;1.67;;;1.57;;
56335;SDS011;42241;53.510;10.170;2023-04-15T05:39:13;1.93;;;1.83;;
56335;SDS011;42241;53.510;10.170;2023-04-15T05:41:39;2.00;;;1.90;;
56335;SDS011;42241;53.510;10.170;2023-04-15T05:44:05;1.80;;;1.70;;
56335;SDS011;42241;53.510;10.170;2023-04-15T05:46:31;1.73;;;1.63;;
56335;SDS011;42241;53.510;10.170;2023-04-15T05:48:56;1.77;;;1.67;;
56335;SDS011;42241;53.510;10.170;2023-04-15T05:51:28;1.63;;;1.53;;
56335;SDS011;42241;53.510;10.170;2023-04-15T05:53:54;1.87;;;1.77;;
56335;SDS011;42241;53.510;10.170;2023-04-15T05:56:19;8.03;;;2.13;;
56335;SDS011;42241;53.510;10.170;2023-04-15T05:58:46;6.37;;;2.40;;
56335;SDS011;42241;53.510;10.170;2023-04-15T06:01:11;2.43;;;1.90;;
56335;SDS011;42241;53.510;10.170;2023-04-15T06:03:40;4.50;;;1.90;;
56335;SDS011;42241;53.510;10.170;2023-04-15T06:06:09;2.07;;;1.47;;
56335;SDS011;42241;53.510;10.170;2023-04-15T06:08:39;1.50;;;1.40;;
56335;SDS011;42241;53.510;10.170;2023-04-15T06:11:10;1.60;;;1.50;;
56335;SDS011;42241;53.510;10.170;2023-04-15T06:13:39;1.40;;;1.30;;
56335;SDS011;42241;53.510;10.170;2023-04-15T06:16:05;1.80;;;1.70;;
56335;SDS011;42241;53.510;10.170;2023-04-15T06:18:31;6.67;;;2.50;;
56335;SDS011;42241;53.510;10.170;2023-04-15T06:20:57;2.17;;;1.90;;
56335;SDS011;42241;53.510;10.170;2023-04-15T06:23:23;2.47;;;2.00;;
56335;SDS011;42241;53.510;10.170;2023-04-15T06:25:49;1.97;;;1.70;;
56335;SDS011;42241;53.510;10.170;2023-04-15T06:28:15;1.90;;;1.80;;
56335;SDS011;42241;53.510;10.170;2023-04-15T06:30:41;2.03;;;1.83;;
56335;SDS011;42241;53.510;10.170;2023-04-15T06:33:06;1.70;;;1.60;;
56335;SDS011;42241;53.510;10.170;2023-04-15T06:35:32;2.73;;;2.53;;
56335;SDS011;42241;53.510;10.170;2023-04-15T06:37:58;1.90;;;1.80;;
56335;SDS011;42241;53.510;10.170;2023-04-15T06:40:25;2.00;;;1.83;;
56335;SDS011;42241;53.510;10.170;2023-04-15T06:42:52;10.90;;;3.20;;
56335;SDS011;42241;53.510;10.170;2023-04-15T06:45:18;5.30;;;2.33;;
56335;SDS011;42241;53.510;10.170;2023-04-15T06:47:44;2.93;;;2.20;;
56335;SDS011;42241;53.510;10.170;2023-04-15T06:50:10;4.27;;;1.93;;
56335;SDS011;42241;53.510;10.170;2023-04-15T06:52:36;2.67;;;2.47;;
56335;SDS011;42241;53.510;10.170;2023-04-15T06:55:02;1.93;;;1.83;;
56335;SDS011;42241;53.510;10.170;2023-04-15T06:57:28;2.20;;;2.10;;
56335;SDS011;42241;53.510;10.170;2023-04-15T06:59:53;2.20;;;2.03;;
56335;SDS011;42241;53.510;10.170;2023-04-15T07:02:19;2.00;;;1.90;;
56335;SDS011;42241;53.510;10.170;2023-04-15T07:04:45;1.63;;;1.53;;
56335;SDS011;42241;53.510;10.170;2023-04-15T07:07:11;2.20;;;1.90;;
56335;SDS011;42241;53.510;10.170;2023-04-15T07:09:37;2.30;;;2.10;;
56335;SDS011;42241;53.510;10.170;2023-04-15T07:12:07;2.67;;;2.47;;
56335;SDS011;42241;53.510;10.170;2023-04-15T07:14:32;2.30;;;2.10;;
56335;SDS011;42241;53.510;10.170;2023-04-15T07:16:58;2.17;;;2.07;;
56335;SDS011;42241;53.510;10.170;2023-04-15T07:19:24;2.30;;;1.97;;
56335;SDS011;42241;53.510;10.170;2023-04-15T07:21:50;7.93;;;2.40;;
56335;SDS011;42241;53.510;10.170;2023-04-15T07:24:16;3.27;;;2.50;;
56335;SDS011;42241;53.510;10.170;2023-04-15T07:26:43;2.23;;;2.03;;
56335;SDS011;42241;53.510;10.170;2023-04-15T07:29:15;3.97;;;2.00;;
56335;SDS011;42241;53.510;10.170;2023-04-15T07:31:46;1.93;;;1.83;;
56335;SDS011;42241;53.510;10.170;2023-04-15T07:34:31;2.30;;;2.00;;
56335;SDS011;42241;53.510;10.170;2023-04-15T07:37:13;2.17;;;2.00;;
56335;SDS011;42241;53.510;10.170;2023-04-15T07:39:42;5.67;;;2.70;;
56335;SDS011;42241;53.510;10.170;2023-04-15T07:42:11;8.23;;;2.20;;
56335;SDS011;42241;53.510;10.170;2023-04-15T07:44:39;3.90;;;2.73;;
56335;SDS011;42241;53.510;10.170;2023-04-15T07:47:05;3.60;;;2.57;;
56335;SDS011;42241;53.510;10.170;2023-04-15T07:49:30;14.60;;;3.53;;
56335;SDS011;42241;53.510;10.170;2023-04-15T07:51:56;9.20;;;5.10;;
56335;SDS011;42241;53.510;10.170;2023-04-15T07:54:24;5.17;;;4.60;;
56335;SDS011;42241;53.510;10.170;2023-04-15T07:57:10;6.20;;;5.03;;
56335;SDS011;42241;53.510;10.170;2023-04-15T07:59:38;6.73;;;3.53;;
56335;SDS011;42241;53.510;10.170;2023-04-15T08:02:04;4.80;;;4.30;;
56335;SDS011;42241;53.510;10.170;2023-04-15T08:04:30;11.93;;;4.60;;
56335;SDS011;42241;53.510;10.170;2023-04-15T08:06:56;10.37;;;3.40;;
56335;SDS011;42241;53.510;10.170;2023-04-15T08:09:22;17.20;;;4.20;;
56335;SDS011;42241;53.510;10.170;2023-04-15T08:11:48;7.33;;;3.50;;
56335;SDS011;42241;53.510;10.170;2023-04-15T08:14:14;6.80;;;3.93;;
56335;SDS011;42241;53.510;10.170;2023-04-15T08:16:40;7.97;;;4.27;;
56335;SDS011;42241;53.510;10.170;2023-04-15T08:19:06;6.07;;;4.43;;
56335;SDS011;42241;53.510;10.170;2023-04-15T08:21:34;8.77;;;5.17;;
56335;SDS011;42241;53.510;10.170;2023-04-15T08:24:00;9.80;;;5.27;;
56335;SDS011;42241;53.510;10.170;2023-04-15T08:26:28;13.93;;;8.33;;
56335;SDS011;42241;53.510;10.170;2023-04-15T08:28:56;14.80;;;10.57;;
56335;SDS011;42241;53.510;10.170;2023-04-15T08:31:25;13.13;;;10.47;;
56335;SDS011;42241;53.510;10.170;2023-04-15T08:33:53;15.83;;;13.20;;
56335;SDS011;42241;53.510;10.170;2023-04-15T08:36:24;17.93;;;12.97;;
56335;SDS011;42241;53.510;10.170;2023-04-15T08:38:53;18.07;;;13.83;;
56335;SDS011;42241;53.510;10.170;2023-04-15T08:41:20;17.23;;;13.63;;
56335;SDS011;42241;53.510;10.170;2023-04-15T08:43:55;22.23;;;15.03;;
56335;SDS011;42241;53.510;10.170;2023-04-15T08:46:25;21.27;;;14.97;;
56335;SDS011;42241;53.510;10.170;2023-04-15T08:48:57;20.63;;;16.10;;
56335;SDS011;42241;53.510;10.170;2023-04-15T08:51:25;15.97;;;13.87;;
56335;SDS011;42241;53.510;10.170;2023-04-15T08:53:57;18.17;;;14.43;;
56335;SDS011;42241;53.510;10.170;2023-04-15T08:56:29;16.17;;;13.13;;
56335;SDS011;42241;53.510;10.170;2023-04-15T08:58:58;16.67;;;13.43;;
56335;SDS011;42241;53.510;10.170;2023-04-15T09:01:27;15.73;;;12.90;;
56335;SDS011;42241;53.510;10.170;2023-04-15T09:03:53;18.13;;;14.50;;
56335;SDS011;42241;53.510;10.170;2023-04-15T09:06:23;16.53;;;13.03;;
56335;SDS011;42241;53.510;10.170;2023-04-15T09:08:51;20.33;;;14.83;;
56335;SDS011;42241;53.510;10.170;2023-04-15T09:11:17;16.73;;;13.50;;
56335;SDS011;42241;53.510;10.170;2023-04-15T09:13:43;17.23;;;13.70;;
56335;SDS011;42241;53.510;10.170;2023-04-15T09:16:12;20.07;;;15.00;;
56335;SDS011;42241;53.510;10.170;2023-04-15T09:18:38;18.13;;;14.53;;
56335;SDS011;42241;53.510;10.170;2023-04-15T09:21:07;19.30;;;13.83;;
56335;SDS011;42241;53.510;10.170;2023-04-15T09:23:35;16.43;;;14.10;;
56335;SDS011;42241;53.510;10.170;2023-04-15T09:26:04;18.57;;;12.77;;
56335;SDS011;42241;53.510;10.170;2023-04-15T09:28:31;18.93;;;13.67;;
56335;SDS011;42241;53.510;10.170;2023-04-15T09:31:04;18.07;;;12.47;;
56335;SDS011;42241;53.510;10.170;2023-04-15T09:33:30;16.37;;;12.20;;
56335;SDS011;42241;53.510;10.170;2023-04-15T09:36:00;18.97;;;13.20;;
56335;SDS011;42241;53.510;10.170;2023-04-15T09:38:28;17.60;;;13.97;;
56335;SDS011;42241;53.510;10.170;2023-04-15T09:40:55;18.23;;;13.40;;
56335;SDS011;42241;53.510;10.170;2023-04-15T09:43:22;16.43;;;13.17;;
56335;SDS011;42241;53.510;10.170;2023-04-15T09:46:00;17.70;;;13.20;;
56335;SDS011;42241;53.510;10.170;2023-04-15T09:48:28;16.47;;;12.83;;
56335;SDS011;42241;53.510;10.170;2023-04-15T09:50:58;15.90;;;11.53;;
56335;SDS011;42241;53.510;10.170;2023-04-15T09:53:27;17.63;;;12.10;;
56335;SDS011;42241;53.510;10.170;2023-04-15T09:55:57;15.77;;;12.37;;
56335;SDS011;42241;53.510;10.170;2023-04-15T10:00:52;16.33;;;12.27;;
56335;SDS011;42241;53.510;10.170;2023-04-15T10:03:27;17.97;;;13.20;;
56335;SDS011;42241;53.510;10.170;2023-04-15T10:05:58;18.50;;;12.77;;
56335;SDS011;42241;53.510;10.170;2023-04-15T10:08:31;16.53;;;12.03;;
56335;SDS011;42241;53.510;10.170;2023-04-15T10:11:03;13.63;;;10.50;;
56335;SDS011;42241;53.510;10.170;2023-04-15T10:13:33;13.70;;;11.67;;
56335;SDS011;42241;53.510;10.170;2023-04-15T10:16:06;16.77;;;12.23;;
56335;SDS011;42241;53.510;10.170;2023-04-15T10:18:39;12.83;;;10.97;;
56335;SDS011;42241;53.510;10.170;2023-04-15T10:21:08;14.00;;;11.70;;
56335;SDS011;42241;53.510;10.170;2023-04-15T10:23:34;14.07;;;11.03;;
56335;SDS011;42241;53.510;10.170;2023-04-15T10:26:03;16.93;;;11.80;;
56335;SDS011;42241;53.510;10.170;2023-04-15T10:28:28;15.67;;;12.30;;
56335;SDS011;42241;53.510;10.170;2023-04-15T10:30:54;16.97;;;12.30;;
56335;SDS011;42241;53.510;10.170;2023-04-15T10:33:21;12.23;;;10.83;;
56335;SDS011;42241;53.510;10.170;2023-04-15T10:35:50;13.63;;;11.27;;
56335;SDS011;42241;53.510;10.170;2023-04-15T10:41:21;13.27;;;10.13;;
56335;SDS011;42241;53.510;10.170;2023-04-15T10:43:53;12.57;;;9.47;;
56335;SDS011;42241;53.510;10.170;2023-04-15T10:49:06;14.40;;;9.77;;
56335;SDS011;42241;53.510;10.170;2023-04-15T10:51:41;12.77;;;10.13;;
56335;SDS011;42241;53.510;10.170;2023-04-15T10:59:35;11.33;;;9.73;;
56335;SDS011;42241;53.510;10.170;2023-04-15T11:02:03;12.70;;;9.17;;
56335;SDS011;42241;53.510;10.170;2023-04-15T11:07:35;9.83;;;8.50;;
56335;SDS011;42241;53.510;10.170;2023-04-15T11:10:03;10.60;;;8.63;;
56335;SDS011;42241;53.510;10.170;2023-04-15T11:20:51;10.53;;;9.27;;
56335;SDS011;42241;53.510;10.170;2023-04-15T11:26:11;10.87;;;8.67;;
56335;SDS011;42241;53.510;10.170;2023-04-15T11:28:37;12.10;;;9.77;;
56335;SDS011;42241;53.510;10.170;2023-04-15T11:31:15;10.40;;;9.30;;
56335;SDS011;42241;53.510;10.170;2023-04-15T11:33:54;10.07;;;9.03;;
56335;SDS011;42241;53.510;10.170;2023-04-15T11:36:23;11.67;;;8.60;;
56335;SDS011;42241;53.510;10.170;2023-04-15T11:38:52;10.03;;;8.33;;
56335;SDS011;42241;53.510;10.170;2023-04-15T11:41:22;10.00;;;8.90;;
56335;SDS011;42241;53.510;10.170;2023-04-15T11:43:48;18.47;;;9.47;;
56335;SDS011;42241;53.510;10.170;2023-04-15T11:46:15;13.80;;;9.07;;
56335;SDS011;42241;53.510;10.170;2023-04-15T11:48:42;10.03;;;9.03;;
56335;SDS011;42241;53.510;10.170;2023-04-15T11:51:09;10.30;;;8.90;;
56335;SDS011;42241;53.510;10.170;2023-04-15T11:53:48;9.73;;;8.73;;
56335;SDS011;42241;53.510;10.170;2023-04-15T11:56:20;10.73;;;8.03;;
56335;SDS011;42241;53.510;10.170;2023-04-15T11:58:47;10.13;;;8.73;;
56335;SDS011;42241;53.510;10.170;2023-04-15T12:01:20;9.57;;;7.23;;
56335;SDS011;42241;53.510;10.170;2023-04-15T12:03:55;8.67;;;7.87;;
56335;SDS011;42241;53.510;10.170;2023-04-15T12:06:24;8.70;;;7.90;;
56335;SDS011;42241;53.510;10.170;2023-04-15T12:08:57;8.50;;;7.60;;
56335;SDS011;42241;53.510;10.170;2023-04-15T12:11:37;8.57;;;7.03;;
56335;SDS011;42241;53.510;10.170;2023-04-15T12:16:58;8.20;;;7.40;;
56335;SDS011;42241;53.510;10.170;2023-04-15T12:19:27;8.37;;;7.57;;
56335;SDS011;42241;53.510;10.170;2023-04-15T12:21:58;8.53;;;7.63;;
56335;SDS011;42241;53.510;10.170;2023-04-15T12:24:30;8.77;;;7.93;;
56335;SDS011;42241;53.510;10.170;2023-04-15T12:26:57;8.87;;;7.97;;
56335;SDS011;42241;53.510;10.170;2023-04-15T12:29:28;8.57;;;7.73;;
56335;SDS011;42241;53.510;10.170;2023-04-15T12:32:10;8.63;;;7.80;;
56335;SDS011;42241;53.510;10.170;2023-04-15T12:34:38;10.13;;;9.03;;
56335;SDS011;42241;53.510;10.170;2023-04-15T12:37:13;8.50;;;7.70;;
56335;SDS011;42241;53.510;10.170;2023-04-15T12:39:40;9.20;;;7.97;;
56335;SDS011;42241;53.510;10.170;2023-04-15T12:42:07;11.20;;;8.20;;
56335;SDS011;42241;53.510;10.170;2023-04-15T12:44:34;9.63;;;7.70;;
56335;SDS011;42241;53.510;10.170;2023-04-15T12:47:01;8.60;;;7.77;;
56335;SDS011;42241;53.510;10.170;2023-04-15T12:49:27;9.80;;;7.97;;
56335;SDS011;42241;53.510;10.170;2023-04-15T12:51:57;11.70;;;7.60;;
56335;SDS011;42241;53.510;10.170;2023-04-15T12:54:24;12.80;;;7.77;;
56335;SDS011;42241;53.510;10.170;2023-04-15T12:56:53;9.73;;;8.73;;
56335;SDS011;42241;53.510;10.170;2023-04-15T12:59:20;10.00;;;9.00;;
56335;SDS011;42241;53.510;10.170;2023-04-15T13:01:49;10.53;;;9.40;;
56335;SDS011;42241;53.510;10.170;2023-04-15T13:04:16;11.27;;;9.40;;
56335;SDS011;42241;53.510;10.170;2023-04-15T13:06:42;11.53;;;8.57;;
56335;SDS011;42241;53.510;10.170;2023-04-15T13:09:08;9.63;;;8.70;;
56335;SDS011;42241;53.510;10.170;2023-04-15T13:11:34;9.17;;;8.23;;
56335;SDS011;42241;53.510;10.170;2023-04-15T13:14:00;9.30;;;8.40;;
56335;SDS011;42241;53.510;10.170;2023-04-15T13:16:27;8.53;;;7.73;;
56335;SDS011;42241;53.510;10.170;2023-04-15T13:18:53;12.50;;;8.60;;
56335;SDS011;42241;53.510;10.170;2023-04-15T13:21:19;15.43;;;9.50;;
56335;SDS011;42241;53.510;10.170;2023-04-15T13:23:47;10.50;;;9.17;;
56335;SDS011;42241;53.510;10.170;2023-04-15T13:26:14;11.83;;;9.40;;
56335;SDS011;42241;53.510;10.170;2023-04-15T13:28:42;9.57;;;8.67;;
56335;SDS011;42241;53.510;10.170;2023-04-15T13:31:10;9.80;;;8.80;;
56335;SDS011;42241;53.510;10.170;2023-04-15T13:33:36;12.03;;;8.70;;
56335;SDS011;42241;53.510;10.170;2023-04-15T13:36:02;10.57;;;9.33;;
56335;SDS011;42241;53.510;10.170;2023-04-15T13:38:28;11.07;;;9.47;;
56335;SDS011;42241;53.510;10.170;2023-04-15T13:40:53;9.80;;;8.67;;
56335;SDS011;42241;53.510;10.170;2023-04-15T13:43:22;11.63;;;9.27;;
56335;SDS011;42241;53.510;10.170;2023-04-15T13:45:51;11.20;;;9.07;;
56335;SDS011;42241;53.510;10.170;2023-04-15T13:48:16;10.67;;;8.63;;
56335;SDS011;42241;53.510;10.170;2023-04-15T13:50:42;8.90;;;8.10;;
56335;SDS011;42241;53.510;10.170;2023-04-15T13:53:12;9.20;;;8.23;;
56335;SDS011;42241;53.510;10.170;2023-04-15T13:55:46;10.07;;;8.60;;
56335;SDS011;42241;53.510;10.170;2023-04-15T13:58:16;9.43;;;7.97;;
56335;SDS011;42241;53.510;10.170;2023-04-15T14:00:43;9.40;;;8.33;;
56335;SDS011;42241;53.510;10.170;2023-04-15T14:03:11;10.80;;;8.17;;
56335;SDS011;42241;53.510;10.170;2023-04-15T14:05:39;10.20;;;7.57;;
56335;SDS011;42241;53.510;10.170;2023-04-15T14:08:07;8.27;;;7.47;;
56335;SDS011;42241;53.510;10.170;2023-04-15T14:10:34;8.57;;;7.67;;
56335;SDS011;42241;53.510;10.170;2023-04-15T14:12:59;9.00;;;8.10;;
56335;SDS011;42241;53.510;10.170;2023-04-15T14:15:27;9.47;;;8.43;;
56335;SDS011;42241;53.510;10.170;2023-04-15T14:17:54;8.00;;;7.30;;
56335;SDS011;42241;53.510;10.170;2023-04-15T14:20:21;7.97;;;7.27;;
56335;SDS011;42241;53.510;10.170;2023-04-15T14:22:50;9.20;;;8.27;;
56335;SDS011;42241;53.510;10.170;2023-04-15T14:25:15;9.20;;;8.30;;
56335;SDS011;42241;53.510;10.170;2023-04-15T14:27:43;10.13;;;8.40;;
56335;SDS011;42241;53.510;10.170;2023-04-15T14:30:12;8.57;;;7.67;;
56335;SDS011;42241;53.510;10.170;2023-04-15T14:32:40;8.43;;;7.63;;
56335;SDS011;42241;53.510;10.170;2023-04-15T14:35:06;8.67;;;7.77;;
56335;SDS011;42241;53.510;10.170;2023-04-15T14:37:31;11.77;;;7.93;;
56335;SDS011;42241;53.510;10.170;2023-04-15T14:39:57;8.30;;;7.43;;
56335;SDS011;42241;53.510;10.170;2023-04-15T14:42:23;10.13;;;8.13;;
56335;SDS011;42241;53.510;10.170;2023-04-15T14:44:49;9.43;;;8.07;;
56335;SDS011;42241;53.510;10.170;2023-04-15T14:47:15;8.47;;;7.63;;
56335;SDS011;42241;53.510;10.170;2023-04-15T14:49:41;8.27;;;7.47;;
56335;SDS011;42241;53.510;10.170;2023-04-15T14:52:07;8.23;;;7.43;;
56335;SDS011;42241;53.510;10.170;2023-04-15T14:54:33;8.90;;;8.00;;
56335;SDS011;42241;53.510;10.170;2023-04-15T14:56:58;8.20;;;7.30;;
56335;SDS011;42241;53.510;10.170;2023-04-15T14:59:25;11.90;;;7.70;;
56335;SDS011;42241;53.510;10.170;2023-04-15T15:01:51;7.90;;;7.10;;